»·PEaware :: WAT476 KLAS-KSAN

WAT476 :: KLAS-KSAN

FLIGHT INFORMATION

Flight Status: Arrived
Operator:
Walker Air Transport
More flights by this operator :: More flights under this callsign
Pilot: Eduardo G. (33126)
Aircraft: MCDONNELL-DOUGLAS MD-88
(MD88)
More flights by this aircraft type
Origin: KLAS McCarran Intl
United States
Destination: KSAN San Diego Intl-Lindbergh
United States
More flights between these airports :: More routes between these airports
Route: BOACH8 LVELL LUCKI1
File this flight plan on PilotEdge
Remarks:
Altitude:
(Current/Filed)
28,000ft
Speed:
(Current/Filed)
430kts
Departed: 18-Feb-21 07:34 PM
Arrived: 18-Feb-21 08:18 PM
Distance/Time
Traveled:
225nm/0:43
Distance/Time
To Go:
Arrived

Flight Plot

Page will automatically refresh every two minutes.

Flight plan parsing failed; only flown route is shown


Map Options




Map Legend


Flown Route
Filed Route
Departure Airport
Arrival Airport
Navaid (VOR, NDB)
Fix

Horizontal Profiles

Position Reports

Time Latitude Longitude Heading Altitude Ground
Speed
18-Feb-21 18:49 36.080194 -115.136129 47 2187ft 0kts
18-Feb-21 18:50 36.080194 -115.136129 47 2187ft 0kts
18-Feb-21 18:51 36.080194 -115.136129 47 2187ft 0kts
18-Feb-21 18:52 36.080194 -115.136129 47 2187ft 0kts
18-Feb-21 18:53 36.080194 -115.136129 47 2187ft 0kts
18-Feb-21 18:54 36.080194 -115.136129 47 2187ft 0kts
18-Feb-21 18:55 36.080194 -115.136129 47 2187ft 0kts
18-Feb-21 18:56 36.080194 -115.136129 47 2187ft 0kts
18-Feb-21 18:57 36.080194 -115.136129 47 2187ft 0kts
18-Feb-21 18:58 36.080194 -115.136129 47 2187ft 0kts
18-Feb-21 18:59 36.080194 -115.136129 47 2187ft 0kts
18-Feb-21 19:00 36.080194 -115.136129 47 2187ft 0kts
18-Feb-21 19:01 36.080194 -115.136129 47 2187ft 0kts
18-Feb-21 19:02 36.080194 -115.136129 47 2187ft 0kts
18-Feb-21 19:03 36.080194 -115.136129 47 2187ft 0kts
18-Feb-21 19:04 36.080194 -115.136129 47 2187ft 0kts
18-Feb-21 19:05 36.080194 -115.136129 47 2187ft 0kts
18-Feb-21 19:06 36.080194 -115.136129 47 2187ft 0kts
18-Feb-21 19:07 36.080194 -115.136129 47 2187ft 0kts
18-Feb-21 19:08 36.080194 -115.136129 47 2187ft 0kts
18-Feb-21 19:09 36.080194 -115.136129 47 2187ft 0kts
18-Feb-21 19:10 36.080194 -115.136129 47 2187ft 0kts
18-Feb-21 19:11 36.080194 -115.136129 47 2187ft 0kts
18-Feb-21 19:12 36.080194 -115.136129 47 2187ft 0kts
18-Feb-21 19:13 36.080194 -115.136129 47 2187ft 0kts
18-Feb-21 19:14 36.080194 -115.136129 47 2187ft 0kts
18-Feb-21 19:15 36.080194 -115.136129 47 2187ft 0kts
18-Feb-21 19:16 36.080194 -115.136129 47 2187ft 0kts
18-Feb-21 19:17 36.080194 -115.136129 47 2187ft 0kts
18-Feb-21 19:18 36.080194 -115.136129 47 2187ft 0kts
18-Feb-21 19:19 36.080194 -115.136129 47 2187ft 0kts
18-Feb-21 19:20 36.080191 -115.136133 47 2187ft 0kts
18-Feb-21 19:21 36.079817 -115.136690 77 2187ft 2kts
18-Feb-21 19:22 36.079949 -115.137164 136 2187ft 0kts
18-Feb-21 19:23 36.079949 -115.137164 136 2187ft 0kts
18-Feb-21 19:24 36.079949 -115.137164 136 2187ft 0kts
18-Feb-21 19:25 36.079936 -115.137150 136 2187ft 0kts
18-Feb-21 19:26 36.079519 -115.136660 135 2187ft 8kts
18-Feb-21 19:27 36.078366 -115.135159 114 2187ft 10kts
18-Feb-21 19:28 36.078279 -115.130644 89 2187ft 9kts
18-Feb-21 19:29 36.078280 -115.126988 90 2187ft 15kts
18-Feb-21 19:30 36.078274 -115.122987 96 2187ft 6kts
18-Feb-21 19:31 36.077502 -115.121545 132 2187ft 0kts
18-Feb-21 19:32 36.077189 -115.121317 165 2187ft 3kts
18-Feb-21 19:33 36.076421 -115.134279 269 2187ft 129kts
18-Feb-21 19:34 36.076312 -115.190204 272 4004ft 177kts
18-Feb-21 19:35 36.068906 -115.258731 227 5654ft 247kts
18-Feb-21 19:36 36.000948 -115.289832 200 8591ft 278kts
18-Feb-21 19:37 35.922927 -115.308260 187 11534ft 302kts
18-Feb-21 19:38 35.828519 -115.312918 176 13097ft 371kts
18-Feb-21 19:39 35.722944 -115.299852 178 15564ft 391kts
18-Feb-21 19:40 35.613718 -115.296702 187 17943ft 398kts
18-Feb-21 19:41 35.501542 -115.301682 187 19951ft 412kts
18-Feb-21 19:42 35.385496 -115.306594 187 21720ft 425kts
18-Feb-21 19:43 35.266111 -115.311235 187 23309ft 436kts
18-Feb-21 19:44 35.143271 -115.315987 187 24686ft 449kts
18-Feb-21 19:45 35.017041 -115.320845 187 26006ft 460kts
18-Feb-21 19:46 34.888052 -115.325798 187 27202ft 470kts
18-Feb-21 19:47 34.758956 -115.338522 200 28332ft 458kts
18-Feb-21 19:48 34.641677 -115.391484 207 28352ft 450kts
18-Feb-21 19:49 34.524090 -115.443169 207 28374ft 450kts
18-Feb-21 19:50 34.406241 -115.494604 207 28426ft 451kts
18-Feb-21 19:51 34.292137 -115.552532 221 28427ft 438kts
18-Feb-21 19:52 34.186262 -115.626517 210 28428ft 446kts
18-Feb-21 19:53 34.070166 -115.681118 207 28437ft 450kts
18-Feb-21 19:54 33.953794 -115.735873 207 28437ft 449kts
18-Feb-21 19:55 33.838824 -115.791895 208 28336ft 446kts
18-Feb-21 19:56 33.723547 -115.847716 207 27498ft 447kts
18-Feb-21 19:57 33.609796 -115.900600 206 26523ft 447kts
18-Feb-21 19:58 33.499250 -115.967663 233 25352ft 425kts
18-Feb-21 19:59 33.436930 -116.078254 241 23839ft 389kts
18-Feb-21 20:00 33.376821 -116.182368 241 22323ft 377kts
18-Feb-21 20:01 33.304337 -116.271970 212 20808ft 391kts
18-Feb-21 20:02 33.206844 -116.326747 211 19327ft 384kts
18-Feb-21 20:03 33.113377 -116.381154 211 17798ft 365kts
18-Feb-21 20:04 33.023380 -116.433743 211 16297ft 359kts
18-Feb-21 20:05 32.946092 -116.503644 226 14573ft 351kts
18-Feb-21 20:06 32.876060 -116.574749 225 12439ft 304kts
18-Feb-21 20:07 32.815668 -116.635725 225 10345ft 272kts
18-Feb-21 20:08 32.761799 -116.700116 246 8259ft 271kts
18-Feb-21 20:09 32.727059 -116.776349 242 6227ft 258kts
18-Feb-21 20:10 32.697822 -116.847709 252 5406ft 232kts
18-Feb-21 20:11 32.676573 -116.919134 252 4583ft 222kts
18-Feb-21 20:12 32.682518 -116.983828 289 3844ft 194kts
18-Feb-21 20:13 32.697475 -117.041077 289 2747ft 169kts
18-Feb-21 20:14 32.709377 -117.089980 287 1812ft 156kts
18-Feb-21 20:15 32.719388 -117.134713 292 1047ft 133kts
18-Feb-21 20:16 32.730924 -117.179050 289 87ft 138kts
18-Feb-21 20:17 32.734952 -117.198816 251 23ft 0kts
18-Feb-21 20:18 32.734947 -117.198835 251 23ft 1kts
18-Feb-21 20:19 32.733452 -117.200439 260 23ft 10kts
18-Feb-21 20:20 32.733422 -117.200684 263 23ft 0kts
18-Feb-21 20:21 32.733422 -117.200684 263 23ft 0kts

Navigation Log

Ident Type
Flight plan parsing failed, navigation log unavailable